MAPA DE AEROPUERTO

INFORMACIÓN METAR y TAF

METAR FOR LPMA
ADDS - METARS form results

(1212 UTC 26 February 2021)
Data provider http://aviationweather.gov/metar/data/
 
METAR text: LPMA 261200Z 01012G22KT 320V060 9999 FEW015 17/07 Q1030
Conditions at: LPMA (FUNCHAL/MADEIRA , PT) observed 1200 UTC 26 February 2021
Temperature: 17.0°C (63°F)
Dewpoint: 7.0°C (45°F) [RH = 52%]
Pressure (altimeter): 30.41 inches Hg (1030.0 mb)
Winds: from the N (10 degrees) at 14 MPH (12 knots; 6.2 m/s)
gusting to 25 MPH (22 knots; 11.3 m/s)
Visibility: 6 or more miles (10+ km)
Ceiling: at least 12,000 feet AGL
Clouds: few clouds at 1500 feet AGL
Weather: no significant weather observed at this time

METAR text: LPMA 261130Z 02014G26KT 330V060 9999 FEW015 16/06 Q1030
Conditions at: LPMA (FUNCHAL/MADEIRA , PT) observed 1130 UTC 26 February 2021
Temperature: 16.0°C (61°F)
Dewpoint: 6.0°C (43°F) [RH = 51%]
Pressure (altimeter): 30.41 inches Hg (1030.0 mb)
Winds: from the NNE (20 degrees) at 16 MPH (14 knots; 7.2 m/s)
gusting to 30 MPH (26 knots; 13.4 m/s)
Visibility: 6 or more miles (10+ km)
Ceiling: at least 12,000 feet AGL
Clouds: few clouds at 1500 feet AGL
Weather: no significant weather observed at this time

Forecast for: LPMA (FUNCHAL/MADEIRA , PT)
Text: TAF LPMA 261100Z 2612/2712 01015KT 9999 SCT015
Forecast period: 1200 UTC 26 February 2021 to 1000 UTC 27 February 2021
Forecast type: FROM: standard forecast or significant change
Winds: from the N (10 degrees) at 17 MPH (15 knots; 7.7 m/s)
Visibility: 6 or more miles (10+ km)
Ceiling: at least 12,000 feet AGL
Clouds: scattered clouds at 1500 feet AGL
Weather: no significant weather forecast for this period
Text: TEMPO 2612/2712 01018G30KT
Forecast period: 1200 UTC 26 February 2021 to 1200 UTC 27 February 2021
Forecast type: TEMPORARY: The following changes expected for less than half the time period
Winds: from the N (10 degrees) at 21 MPH (18 knots; 9.3 m/s)
gusting to 34 MPH (30 knots; 15.4 m/s)
Visibility: missing
Ceiling: unknown
Clouds: missing
Weather: no significant weather forecast for this period
Text: BECMG 2710/2712 SCT014 BKN030
Forecast period: 1000 to 1200 UTC 27 February 2021
Forecast type: BECOMING: Conditions expected to become as follows by 1200 UTC 27 February 2021
Winds: from the N (10 degrees) at 17 MPH (15 knots; 7.7 m/s)
Visibility: 6 or more miles (10+ km)
Ceiling: 3000 feet AGL
Clouds: scattered clouds at 1400 feet AGL
broken clouds at 3000 feet AGL
Weather: no significant weather forecast for this period